Time;durP1;ratioP1;P1;durP2;ratioP2;P2;SDS_P1;SDS_P2;PMS_P1;PMS_P2;Temp;Humidity;BMP_temperature;BMP_pressure;BME280_temperature;BME280_humidity;BME280_pressure;Samples;Min_cycle;Max_cycle;Signal;HPM_P1;HPM_P2
2023/06/07 00:01:52;;;;;;;26.77;8.67;;;12.10;99.90;;;;;;5013758;28;20199;-55
2023/06/07 00:04:17;;;;;;;19.27;8.00;;;12.10;1.00;;;;;;5013898;28;20184;-55
2023/06/07 00:06:43;;;;;;;15.20;7.90;;;12.00;1.00;;;;;;5013498;28;20184;-55
2023/06/07 00:09:09;;;;;;;15.43;7.57;;;12.00;1.00;;;;;;5013548;28;20180;-54
2023/06/07 00:11:36;;;;;;;17.87;7.80;;;12.00;55.00;;;;;;5013729;28;20462;-55
2023/06/07 00:14:02;;;;;;;20.63;8.00;;;11.90;99.90;;;;;;5013516;28;20691;-55
2023/06/07 00:16:28;;;;;;;21.30;7.73;;;11.90;99.90;;;;;;5013526;28;20454;-55
2023/06/07 00:18:54;;;;;;;16.97;7.90;;;11.90;99.90;;;;;;5013418;28;20411;-55
2023/06/07 00:21:20;;;;;;;14.97;7.73;;;11.80;1.00;;;;;;5013223;28;20415;-54
2023/06/07 00:23:49;;;;;;;16.07;7.70;;;11.80;99.90;;;;;;5013560;28;20423;-55
2023/06/07 00:26:15;;;;;;;13.80;7.13;;;11.70;99.90;;;;;;5016601;28;20242;-55
2023/06/07 00:28:41;;;;;;;17.00;7.50;;;11.70;1.00;;;;;;5016876;28;20454;-55
2023/06/07 00:31:07;;;;;;;17.50;6.70;;;11.70;99.90;;;;;;5017091;28;20191;-56
2023/06/07 00:33:33;;;;;;;18.70;8.03;;;11.70;98.30;;;;;;5017000;28;20180;-55
2023/06/07 00:35:58;;;;;;;18.30;7.60;;;11.60;1.00;;;;;;5016601;28;20635;-55
2023/06/07 00:38:24;;;;;;;19.03;7.70;;;11.60;1.00;;;;;;5016722;28;20427;-55
2023/06/07 00:40:50;;;;;;;18.20;7.40;;;11.50;99.90;;;;;;5016946;28;20191;-55
2023/06/07 00:43:16;;;;;;;21.97;7.30;;;11.50;99.90;;;;;;5016807;28;20180;-54
2023/06/07 00:45:42;;;;;;;15.77;8.17;;;11.50;1.00;;;;;;5017120;28;20458;-55
2023/06/07 00:48:08;;;;;;;21.20;8.67;;;11.40;1.00;;;;;;5016889;28;20647;-55
2023/06/07 00:50:34;;;;;;;19.77;7.90;;;11.40;1.00;;;;;;5017261;28;20191;-55
2023/06/07 00:53:01;;;;;;;22.97;8.07;;;11.40;99.90;;;;;;5016205;28;20552;-55
2023/06/07 00:55:27;;;;;;;24.47;7.67;;;11.40;99.90;;;;;;5016870;28;20498;-54
2023/06/07 00:57:53;;;;;;;21.00;8.30;;;11.30;56.80;;;;;;5016710;28;20526;-55
2023/06/07 01:00:20;;;;;;;21.37;8.23;;;11.30;1.00;;;;;;5016814;28;20180;-54
2023/06/07 01:02:49;;;;;;;17.60;7.90;;;11.30;99.90;;;;;;5016507;28;20767;-54
2023/06/07 01:05:16;;;;;;;27.87;8.47;;;11.30;99.90;;;;;;5016312;28;20462;-55
2023/06/07 01:07:49;;;;;;;16.10;8.13;;;11.20;1.00;;;;;;5016159;28;20502;-55
2023/06/07 01:10:16;;;;;;;16.80;8.63;;;11.20;1.00;;;;;;5016408;28;20430;-55
2023/06/07 01:12:43;;;;;;;28.50;9.00;;;11.20;99.90;;;;;;5016608;28;20419;-55
2023/06/07 01:15:10;;;;;;;20.37;8.13;;;11.20;1.00;;;;;;5016564;28;20473;-55
2023/06/07 01:17:41;;;;;;;23.20;7.60;;;11.20;1.00;;;;;;5016215;28;20526;-55
2023/06/07 01:20:15;;;;;;;26.20;8.23;;;11.10;1.00;;;;;;5016423;28;20465;-54
2023/06/07 01:22:44;;;;;;;20.20;8.50;;;11.10;1.00;;;;;;5016163;28;20411;-55
2023/06/07 01:25:10;;;;;;;32.60;9.43;;;11.10;7.00;;;;;;5015723;28;20962;-54
2023/06/07 01:27:39;;;;;;;17.60;8.77;;;11.10;43.60;;;;;;5016008;28;20470;-55
2023/06/07 01:30:08;;;;;;;26.73;8.53;;;11.00;38.40;;;;;;5015929;28;20415;-54
2023/06/07 01:32:34;;;;;;;24.63;9.83;;;11.00;28.80;;;;;;5016019;28;20414;-54
2023/06/07 01:35:03;;;;;;;21.43;8.83;;;11.00;85.30;;;;;;5015824;28;20485;-55
2023/06/07 01:37:30;;;;;;;31.03;9.70;;;11.00;99.90;;;;;;5015193;28;20419;-54
2023/06/07 01:39:56;;;;;;;28.73;9.07;;;11.00;99.90;;;;;;5015975;28;20414;-54
2023/06/07 01:42:23;;;;;;;19.53;8.20;;;10.90;99.90;;;;;;5015504;28;20769;-54
2023/06/07 01:44:48;;;;;;;18.90;8.70;;;10.90;99.90;;;;;;5015433;28;20521;-54
2023/06/07 01:47:14;;;;;;;27.67;9.70;;;10.90;99.90;;;;;;5015438;28;20755;-55
2023/06/07 01:49:41;;;;;;;27.77;9.93;;;10.90;99.90;;;;;;5015570;28;20186;-55
2023/06/07 01:52:07;;;;;;;27.73;8.93;;;10.90;99.90;;;;;;5015451;28;20475;-54
2023/06/07 01:54:33;;;;;;;21.13;9.27;;;10.90;99.90;;;;;;5015706;28;20410;-54
2023/06/07 01:57:29;;;;;;;26.70;10.50;;;10.90;99.90;;;;;;5015448;28;20184;-54
2023/06/07 02:00:13;;;;;;;30.53;9.93;;;10.80;99.90;;;;;;5015490;28;20494;-55
2023/06/07 02:02:55;;;;;;;30.67;9.83;;;10.80;99.90;;;;;;5015845;28;20431;-54
2023/06/07 02:05:32;;;;;;;20.00;9.27;;;10.70;99.90;;;;;;5015320;28;20970;-54
2023/06/07 02:08:00;;;;;;;20.60;8.60;;;10.70;99.90;;;;;;5015462;28;20438;-54
2023/06/07 02:10:29;;;;;;;33.33;10.27;;;10.70;99.90;;;;;;5014579;28;20830;-54
2023/06/07 02:12:56;;;;;;;22.17;8.50;;;10.70;99.90;;;;;;5015314;28;20407;-54
2023/06/07 02:15:22;;;;;;;21.83;8.20;;;10.70;99.90;;;;;;5014737;28;20419;-54
2023/06/07 02:17:49;;;;;;;25.10;9.30;;;10.60;99.90;;;;;;5014783;28;20419;-54
2023/06/07 02:20:15;;;;;;;25.67;9.47;;;10.60;99.90;;;;;;5015195;28;20223;-54
2023/06/07 02:22:40;;;;;;;26.87;9.90;;;10.60;99.90;;;;;;5014785;28;20454;-54
2023/06/07 02:25:08;;;;;;;29.27;10.30;;;10.50;99.90;;;;;;5015045;28;20258;-55
2023/06/07 02:27:34;;;;;;;33.50;10.70;;;10.50;99.90;;;;;;5015005;28;20192;-54
2023/06/07 02:30:00;;;;;;;32.93;9.43;;;10.50;99.90;;;;;;5014917;28;21036;-54
2023/06/07 02:32:26;;;;;;;23.53;9.27;;;10.50;99.90;;;;;;5014849;28;20419;-54
2023/06/07 02:34:51;;;;;;;22.80;9.20;;;10.40;99.90;;;;;;5014637;28;20219;-54
2023/06/07 02:37:17;;;;;;;25.70;9.80;;;10.40;99.90;;;;;;5014881;28;20282;-54
2023/06/07 02:39:43;;;;;;;31.50;9.20;;;10.40;99.90;;;;;;5014762;28;20176;-54
2023/06/07 02:42:08;;;;;;;22.63;9.13;;;10.40;99.90;;;;;;5014434;28;20473;-54
2023/06/07 02:44:34;;;;;;;17.77;8.53;;;10.40;99.90;;;;;;5014815;28;20230;-54
2023/06/07 02:47:00;;;;;;;17.00;8.20;;;10.30;99.90;;;;;;5014575;28;20184;-54
2023/06/07 02:49:25;;;;;;;31.43;8.77;;;10.30;99.90;;;;;;5013780;28;20658;-54
2023/06/07 02:51:51;;;;;;;25.70;9.40;;;10.30;99.90;;;;;;5014477;28;20615;-54
2023/06/07 02:54:19;;;;;;;33.63;8.17;;;10.30;99.90;;;;;;5014357;28;20176;-55
2023/06/07 02:56:45;;;;;;;26.17;8.90;;;10.30;99.90;;;;;;5014385;28;20184;-54
2023/06/07 02:59:11;;;;;;;25.83;9.07;;;10.30;99.90;;;;;;5014508;28;20469;-55
2023/06/07 03:01:37;;;;;;;22.00;9.00;;;10.20;99.90;;;;;;5013945;28;20422;-54
2023/06/07 03:04:03;;;;;;;17.47;8.10;;;10.20;99.90;;;;;;5014233;28;20192;-54
2023/06/07 03:06:29;;;;;;;36.17;9.67;;;10.20;99.90;;;;;;5014400;28;20790;-54
2023/06/07 03:08:56;;;;;;;28.20;8.90;;;10.20;99.90;;;;;;5014524;28;20426;-54
2023/06/07 03:11:22;;;;;;;29.27;8.90;;;10.10;99.90;;;;;;5014458;28;20414;-54
2023/06/07 03:13:48;;;;;;;26.87;8.40;;;10.20;99.90;;;;;;5014382;28;20502;-54
2023/06/07 03:16:14;;;;;;;26.03;9.67;;;10.20;99.90;;;;;;5014312;28;20813;-54
2023/06/07 03:18:40;;;;;;;24.93;8.77;;;10.20;99.90;;;;;;5014441;28;20188;-54
2023/06/07 03:21:06;;;;;;;22.40;8.83;;;10.10;99.90;;;;;;5014320;28;20910;-55
2023/06/07 03:23:31;;;;;;;20.27;8.90;;;10.10;99.90;;;;;;5014444;28;20260;-54
2023/06/07 03:25:58;;;;;;;32.90;9.70;;;10.10;99.90;;;;;;5013656;28;20466;-54
2023/06/07 03:28:24;;;;;;;33.73;9.73;;;10.10;99.90;;;;;;5014307;28;20267;-54
2023/06/07 03:30:50;;;;;;;25.63;10.10;;;10.10;99.90;;;;;;5013994;28;20569;-54
2023/06/07 03:33:16;;;;;;;30.90;9.03;;;10.20;99.90;;;;;;5013833;28;20188;-54
2023/06/07 03:35:44;;;;;;;28.73;8.40;;;10.20;99.90;;;;;;5014390;28;20180;-54
2023/06/07 03:38:10;;;;;;;37.30;9.93;;;10.20;99.90;;;;;;5014250;28;20184;-54
2023/06/07 03:40:35;;;;;;;32.17;9.70;;;10.20;99.90;;;;;;5013569;28;20407;-54
2023/06/07 03:43:01;;;;;;;23.27;8.30;;;10.20;99.90;;;;;;5013588;28;20176;-54
2023/06/07 03:45:27;;;;;;;24.50;8.80;;;10.30;99.90;;;;;;5014082;28;20253;-54
2023/06/07 03:47:53;;;;;;;19.90;8.00;;;10.30;99.90;;;;;;5013872;28;20779;-54
2023/06/07 03:50:20;;;;;;;32.13;9.00;;;10.30;99.90;;;;;;5013772;28;20184;-54
2023/06/07 03:52:45;;;;;;;29.17;8.20;;;10.30;99.90;;;;;;5013753;28;20475;-54
2023/06/07 03:55:11;;;;;;;29.30;8.57;;;10.40;99.90;;;;;;5013540;28;20423;-54
2023/06/07 03:57:37;;;;;;;33.20;9.13;;;10.40;99.90;;;;;;5014367;28;20180;-55
2023/06/07 04:00:11;;;;;;;20.50;8.53;;;10.40;99.90;;;;;;5016782;28;20188;-57
2023/06/07 04:02:37;;;;;;;33.40;8.17;;;10.50;99.90;;;;;;5019192;28;20535;-56
2023/06/07 04:05:03;;;;;;;29.67;8.10;;;10.50;99.90;;;;;;5018190;28;20450;-55
2023/06/07 04:07:29;;;;;;;41.63;8.70;;;10.50;99.90;;;;;;5017610;28;20250;-55
2023/06/07 04:09:55;;;;;;;23.67;8.33;;;10.60;99.90;;;;;;5017347;28;20429;-54
2023/06/07 04:12:21;;;;;;;29.10;8.10;;;10.60;99.90;;;;;;5017584;28;20411;-54
2023/06/07 04:14:47;;;;;;;27.33;9.27;;;10.60;99.90;;;;;;5017425;28;20192;-54
2023/06/07 04:17:12;;;;;;;35.10;8.50;;;10.70;99.90;;;;;;5017450;28;20195;-54
2023/06/07 04:19:38;;;;;;;24.47;7.70;;;10.80;99.90;;;;;;5017291;28;20682;-54
2023/06/07 04:22:04;;;;;;;34.33;10.10;;;10.80;99.90;;;;;;5017266;28;20188;-55
2023/06/07 04:24:31;;;;;;;25.40;8.90;;;10.80;99.90;;;;;;5017155;28;20193;-54
2023/06/07 04:26:57;;;;;;;22.63;9.87;;;10.90;99.90;;;;;;5017459;28;20415;-54
2023/06/07 04:29:25;;;;;;;38.13;10.20;;;10.90;99.90;;;;;;5017365;28;20417;-54
2023/06/07 04:31:56;;;;;;;29.83;9.90;;;11.00;99.90;;;;;;5017296;28;20415;-54
2023/06/07 04:34:25;;;;;;;42.90;10.80;;;11.00;99.90;;;;;;5017365;28;20419;-54
2023/06/07 04:36:52;;;;;;;30.80;10.97;;;11.10;99.90;;;;;;5017202;28;20420;-54
2023/06/07 04:39:18;;;;;;;28.00;10.57;;;11.10;99.90;;;;;;5017023;28;20850;-54
2023/06/07 04:41:45;;;;;;;21.10;8.97;;;11.20;99.90;;;;;;5016796;28;20435;-54
2023/06/07 04:44:11;;;;;;;18.70;8.97;;;11.30;99.90;;;;;;5017078;28;20438;-54
2023/06/07 04:46:39;;;;;;;28.10;9.87;;;11.30;99.90;;;;;;5016807;28;20876;-54
2023/06/07 04:49:05;;;;;;;21.13;9.23;;;11.30;99.90;;;;;;5016903;28;20439;-54
2023/06/07 04:51:30;;;;;;;23.47;10.43;;;11.30;99.90;;;;;;5016826;28;20435;-54
2023/06/07 04:54:01;;;;;;;21.17;8.53;;;11.30;99.90;;;;;;5016903;28;20863;-55
2023/06/07 04:56:30;;;;;;;20.63;8.33;;;11.30;99.90;;;;;;5016733;28;20518;-54
2023/06/07 04:58:58;;;;;;;19.70;10.00;;;11.20;99.90;;;;;;5016598;28;20519;-54
2023/06/07 05:01:24;;;;;;;20.63;9.60;;;11.20;99.90;;;;;;5016197;28;20929;-54
2023/06/07 05:03:57;;;;;;;23.97;12.47;;;11.30;99.90;;;;;;5016628;28;20423;-53
2023/06/07 05:06:22;;;;;;;19.00;10.27;;;11.30;99.90;;;;;;5016833;28;20265;-54
2023/06/07 05:08:48;;;;;;;22.00;10.17;;;11.40;99.90;;;;;;5016447;28;20526;-54
2023/06/07 05:11:14;;;;;;;22.27;11.57;;;11.40;99.90;;;;;;5015349;28;20180;-54
2023/06/07 05:13:39;;;;;;;24.57;12.43;;;11.40;99.90;;;;;;5016535;28;20180;-53
2023/06/07 05:16:06;;;;;;;29.57;12.33;;;11.40;99.90;;;;;;5016290;28;20617;-54
2023/06/07 05:18:31;;;;;;;26.77;12.43;;;11.50;99.90;;;;;;5016331;28;20192;-54
2023/06/07 05:20:57;;;;;;;32.23;13.63;;;11.60;99.90;;;;;;5016178;28;20415;-54
2023/06/07 05:23:22;;;;;;;28.40;12.20;;;11.70;99.90;;;;;;5016069;28;20242;-54
2023/06/07 05:25:48;;;;;;;26.37;12.60;;;11.80;99.90;;;;;;5015775;28;20208;-54
2023/06/07 05:28:14;;;;;;;26.97;12.90;;;11.90;99.90;;;;;;5015845;28;20188;-55
2023/06/07 05:30:40;;;;;;;32.83;12.33;;;12.00;99.90;;;;;;5016022;28;20296;-55
2023/06/07 05:33:06;;;;;;;25.73;13.00;;;12.00;99.90;;;;;;5015691;28;20450;-55
2023/06/07 05:35:32;;;;;;;33.33;13.57;;;12.00;99.90;;;;;;5015641;28;20708;-56
2023/06/07 05:37:57;;;;;;;29.97;12.80;;;11.90;99.90;;;;;;5016094;28;20450;-56
2023/06/07 05:40:23;;;;;;;24.20;12.43;;;11.90;99.90;;;;;;5016099;28;20778;-56
2023/06/07 05:42:50;;;;;;;25.37;12.93;;;11.90;99.90;;;;;;5015886;28;20657;-55
2023/06/07 05:45:16;;;;;;;27.23;14.07;;;12.00;99.90;;;;;;5015824;28;20295;-55
2023/06/07 05:47:45;;;;;;;29.67;12.70;;;12.20;99.90;;;;;;5016213;28;20442;-55
2023/06/07 05:50:11;;;;;;;26.43;13.37;;;12.40;99.90;;;;;;5015476;28;20419;-55
2023/06/07 05:52:40;;;;;;;23.60;12.93;;;12.50;99.90;;;;;;5015636;28;20475;-55
2023/06/07 05:55:06;;;;;;;24.87;11.47;;;12.70;1.00;;;;;;5015809;28;20422;-55
2023/06/07 05:57:32;;;;;;;20.00;12.13;;;13.00;1.00;;;;;;5015408;28;20944;-55
2023/06/07 05:59:58;;;;;;;23.70;12.23;;;13.10;1.00;;;;;;5014057;28;20510;-55
2023/06/07 06:02:24;;;;;;;21.50;12.47;;;13.20;99.90;;;;;;5015286;28;20176;-55
2023/06/07 06:04:52;;;;;;;27.00;13.00;;;13.30;99.90;;;;;;5015407;28;20556;-55
2023/06/07 06:07:19;;;;;;;26.53;13.67;;;13.30;99.90;;;;;;5015447;28;20454;-56
2023/06/07 06:09:45;;;;;;;26.67;13.30;;;13.40;99.90;;;;;;5015281;28;20440;-56
2023/06/07 06:12:10;;;;;;;30.73;14.47;;;13.40;1.00;;;;;;5014825;28;20773;-55
2023/06/07 06:14:37;;;;;;;21.47;12.90;;;13.30;99.90;;;;;;5015467;28;20184;-55
2023/06/07 06:17:03;;;;;;;24.30;12.87;;;13.50;99.90;;;;;;5014819;28;20184;-56
2023/06/07 06:19:29;;;;;;;24.13;12.90;;;13.50;1.00;;;;;;5014870;28;20471;-56
2023/06/07 06:21:54;;;;;;;24.70;12.50;;;13.60;99.90;;;;;;5015138;28;20439;-57
2023/06/07 06:24:20;;;;;;;20.97;12.23;;;13.70;99.90;;;;;;5015138;28;20628;-56
2023/06/07 06:26:45;;;;;;;21.47;12.70;;;13.70;1.00;;;;;;5014806;28;20564;-56
2023/06/07 06:29:11;;;;;;;23.80;13.93;;;13.80;1.00;;;;;;5015306;28;20181;-58
2023/06/07 06:31:37;;;;;;;26.00;12.83;;;13.90;99.90;;;;;;5014968;28;20180;-57
2023/06/07 06:34:02;;;;;;;22.70;12.70;;;14.10;1.00;;;;;;5014429;28;20172;-56
2023/06/07 06:36:29;;;;;;;26.20;12.97;;;14.10;1.00;;;;;;5014507;28;20274;-56
2023/06/07 06:38:55;;;;;;;18.87;12.40;;;14.10;99.90;;;;;;5014531;28;20184;-57
2023/06/07 06:41:21;;;;;;;23.53;12.33;;;14.20;99.90;;;;;;5014787;28;20413;-57
2023/06/07 06:43:47;;;;;;;23.10;12.70;;;14.50;69.30;;;;;;5015045;28;20259;-56
2023/06/07 06:46:12;;;;;;;29.20;12.40;;;14.90;51.20;;;;;;5014783;28;20455;-57
2023/06/07 06:48:38;;;;;;;18.30;12.00;;;15.10;1.00;;;;;;5014321;28;20192;-57
2023/06/07 06:51:04;;;;;;;16.73;9.90;;;15.30;1.00;;;;;;5014666;28;20267;-57
2023/06/07 06:53:29;;;;;;;15.63;10.43;;;15.70;1.00;;;;;;5014106;28;20246;-57
2023/06/07 06:55:55;;;;;;;19.90;10.60;;;16.10;1.00;;;;;;5014492;28;20594;-57
2023/06/07 06:58:21;;;;;;;17.30;10.07;;;16.20;1.00;;;;;;5014396;28;20181;-58
2023/06/07 07:00:47;;;;;;;14.07;9.03;;;16.40;1.00;;;;;;5014039;28;20637;-56
2023/06/07 07:03:12;;;;;;;17.67;8.90;;;16.90;1.00;;;;;;5014066;28;20182;-54
2023/06/07 07:05:38;;;;;;;18.43;9.10;;;17.20;1.00;;;;;;5010656;28;20511;-57
2023/06/07 07:08:04;;;;;;;15.00;8.73;;;17.40;1.00;;;;;;5014210;28;20236;-56
2023/06/07 07:10:29;;;;;;;15.27;9.00;;;17.50;1.00;;;;;;5014666;28;20601;-56
2023/06/07 07:12:55;;;;;;;15.13;8.07;;;17.70;1.00;;;;;;5014068;28;20425;-57
2023/06/07 07:15:21;;;;;;;16.30;8.43;;;17.80;1.00;;;;;;5014320;28;20268;-58
2023/06/07 07:17:48;;;;;;;18.47;8.53;;;18.00;1.00;;;;;;5012573;28;20193;-58
2023/06/07 07:20:15;;;;;;;16.70;8.63;;;18.00;1.00;;;;;;5014207;28;20198;-58
2023/06/07 07:22:41;;;;;;;12.47;8.30;;;18.10;1.00;;;;;;5014283;28;20472;-60
2023/06/07 07:25:07;;;;;;;12.90;8.23;;;18.30;1.00;;;;;;5014243;28;20803;-58
2023/06/07 07:27:33;;;;;;;14.90;7.60;;;18.50;1.00;;;;;;5014427;28;20425;-57
2023/06/07 07:29:59;;;;;;;15.53;7.67;;;18.80;1.00;;;;;;5014205;28;20424;-57
2023/06/07 07:32:25;;;;;;;16.53;9.00;;;19.10;1.00;;;;;;5014009;28;20578;-58
2023/06/07 07:34:50;;;;;;;15.03;7.90;;;19.30;1.00;;;;;;5015495;28;20417;-58
2023/06/07 07:37:17;;;;;;;15.10;8.20;;;19.40;1.00;;;;;;5018377;28;20687;-56
2023/06/07 07:39:42;;;;;;;14.03;7.03;;;19.50;1.00;;;;;;5017717;28;20648;-58
2023/06/07 07:42:08;;;;;;;21.63;8.13;;;19.70;1.00;;;;;;5018017;28;20418;-58
2023/06/07 07:44:34;;;;;;;14.83;8.20;;;19.90;1.00;;;;;;5017420;28;20536;-58
2023/06/07 07:47:00;;;;;;;15.53;8.00;;;19.90;1.00;;;;;;5018100;28;20237;-59
2023/06/07 07:49:25;;;;;;;16.97;8.53;;;20.00;1.00;;;;;;5017883;28;20953;-58
2023/06/07 07:51:51;;;;;;;17.57;8.00;;;20.10;1.00;;;;;;5017312;28;20330;-58
2023/06/07 07:54:17;;;;;;;20.70;8.53;;;20.10;1.00;;;;;;5017840;28;20221;-58
2023/06/07 07:56:43;;;;;;;16.80;8.30;;;20.30;1.00;;;;;;5017792;28;20268;-58
2023/06/07 07:59:10;;;;;;;23.63;8.73;;;20.50;1.00;;;;;;5017866;28;20511;-57
2023/06/07 08:01:36;;;;;;;13.53;7.47;;;20.90;1.00;;;;;;5017832;28;20430;-51
2023/06/07 08:04:02;;;;;;;17.53;8.10;;;20.60;1.00;;;;;;5017378;28;20422;-50
2023/06/07 08:06:27;;;;;;;13.63;7.27;;;20.80;1.00;;;;;;5017203;28;20651;-50
2023/06/07 08:08:53;;;;;;;26.67;8.53;;;21.20;1.00;;;;;;5017351;28;20186;-50
2023/06/07 08:11:18;;;;;;;16.87;8.07;;;21.70;1.00;;;;;;5017518;28;20219;-51
2023/06/07 08:13:44;;;;;;;21.40;7.80;;;21.90;1.00;;;;;;5017401;28;20210;-50
2023/06/07 08:16:10;;;;;;;12.43;8.30;;;21.60;1.00;;;;;;5017341;28;20191;-50
2023/06/07 08:18:35;;;;;;;14.13;7.17;;;22.00;1.00;;;;;;5017210;28;20607;-50
2023/06/07 08:21:02;;;;;;;20.77;8.60;;;22.60;1.00;;;;;;5017127;28;20262;-50
2023/06/07 08:23:28;;;;;;;20.47;8.57;;;22.80;1.00;;;;;;5017080;28;20585;-50
2023/06/07 08:25:53;;;;;;;20.50;9.13;;;22.70;1.00;;;;;;5016424;28;20469;-50
2023/06/07 08:28:20;;;;;;;18.30;9.37;;;22.90;1.00;;;;;;5017006;28;20611;-50
2023/06/07 08:30:47;;;;;;;18.67;9.97;;;23.20;1.00;;;;;;5016701;28;20527;-50
2023/06/07 08:33:13;;;;;;;15.80;10.10;;;23.10;99.90;;;;;;5017000;28;20416;-50
2023/06/07 08:35:38;;;;;;;16.60;9.33;;;23.20;99.90;;;;;;5016454;28;20761;-50
2023/06/07 08:38:04;;;;;;;19.67;11.53;;;23.50;99.90;;;;;;5016779;28;20206;-49
2023/06/07 08:40:32;;;;;;;16.57;11.13;;;23.50;99.90;;;;;;5016633;28;20188;-49
2023/06/07 08:42:58;;;;;;;19.53;11.87;;;23.70;99.90;;;;;;5016739;28;20561;-49
2023/06/07 08:45:23;;;;;;;21.60;11.83;;;23.80;99.90;;;;;;5016781;28;20465;-49
2023/06/07 08:47:50;;;;;;;21.40;12.50;;;24.10;99.90;;;;;;5016405;28;20272;-48
2023/06/07 08:50:17;;;;;;;23.27;12.03;;;24.50;99.90;;;;;;5016769;28;20195;-48
2023/06/07 08:52:48;;;;;;;15.93;11.33;;;24.50;99.90;;;;;;5015936;28;20526;-48
2023/06/07 08:55:14;;;;;;;20.10;12.43;;;24.50;99.90;;;;;;5016862;28;20448;-48
2023/06/07 08:57:40;;;;;;;19.23;11.23;;;24.80;99.90;;;;;;5016429;28;20953;-48
2023/06/07 09:00:06;;;;;;;14.30;11.00;;;24.70;99.90;;;;;;5016253;28;20429;-48
2023/06/07 09:02:33;;;;;;;17.40;10.10;;;24.70;99.90;;;;;;5016557;28;20826;-48
2023/06/07 09:05:05;;;;;;;16.07;10.80;;;24.90;99.90;;;;;;5016196;28;20463;-48
2023/06/07 09:07:35;;;;;;;13.50;9.43;;;25.00;99.90;;;;;;5016541;28;20863;-48
2023/06/07 09:10:01;;;;;;;13.70;9.20;;;25.20;99.90;;;;;;5016115;28;20418;-48
2023/06/07 09:12:26;;;;;;;18.37;8.80;;;25.30;99.90;;;;;;5016238;28;20422;-48
2023/06/07 09:14:53;;;;;;;15.57;8.70;;;25.30;99.90;;;;;;5016277;28;20195;-48
2023/06/07 09:17:18;;;;;;;12.10;8.27;;;25.70;99.90;;;;;;5015823;28;20695;-48
2023/06/07 09:19:44;;;;;;;15.23;8.33;;;25.80;99.90;;;;;;5016202;28;20574;-48
2023/06/07 09:22:13;;;;;;;15.90;8.90;;;25.80;99.90;;;;;;5015357;28;20543;-48
2023/06/07 09:24:40;;;;;;;13.37;8.83;;;25.60;99.90;;;;;;5015761;28;20533;-48
2023/06/07 09:27:08;;;;;;;15.10;9.13;;;25.70;99.90;;;;;;5015828;28;20422;-48
2023/06/07 09:29:41;;;;;;;13.73;9.00;;;26.10;99.90;;;;;;5016001;28;20434;-48
2023/06/07 09:32:18;;;;;;;17.13;8.47;;;26.40;99.90;;;;;;5015696;28;20446;-48
2023/06/07 09:34:44;;;;;;;13.17;8.93;;;26.40;99.90;;;;;;5015825;28;20875;-48
2023/06/07 09:37:09;;;;;;;19.57;9.00;;;26.30;99.90;;;;;;5015405;28;20449;-47
2023/06/07 09:39:37;;;;;;;10.87;8.60;;;26.30;99.90;;;;;;5015404;28;20922;-48
2023/06/07 09:42:15;;;;;;;13.57;8.00;;;26.30;99.90;;;;;;5015181;28;20528;-48
2023/06/07 09:44:41;;;;;;;26.53;8.23;;;26.60;99.90;;;;;;5014318;28;20551;-48
2023/06/07 09:47:21;;;;;;;14.23;8.57;;;26.70;99.90;;;;;;5014955;28;20511;-48
2023/06/07 09:49:47;;;;;;;18.53;8.10;;;27.10;99.90;;;;;;5015507;28;20180;-55
2023/06/07 09:52:15;;;;;;;11.43;7.10;;;26.90;99.90;;;;;;5014865;28;21017;-55
2023/06/07 09:54:44;;;;;;;18.63;7.17;;;26.80;99.90;;;;;;5015313;28;20249;-55
2023/06/07 09:57:27;;;;;;;14.10;7.47;;;26.90;99.90;;;;;;5014928;28;20419;-54
2023/06/07 09:59:58;;;;;;;16.70;7.67;;;27.00;99.90;;;;;;5015188;28;20416;-54
2023/06/07 10:02:28;;;;;;;16.53;7.13;;;27.20;99.90;;;;;;5015043;28;20422;-54
2023/06/07 10:04:56;;;;;;;11.70;6.03;;;27.60;99.90;;;;;;5014736;28;20475;-55
2023/06/07 10:07:23;;;;;;;15.07;6.40;;;27.60;99.90;;;;;;5015050;28;20957;-55
2023/06/07 10:09:58;;;;;;;12.47;5.70;;;27.80;99.90;;;;;;5015011;28;20948;-56
2023/06/07 10:12:28;;;;;;;12.87;6.20;;;27.80;99.90;;;;;;5014515;28;20899;-55
2023/06/07 10:14:54;;;;;;;10.83;5.27;;;28.20;99.90;;;;;;5014658;28;20400;-55
2023/06/07 10:17:44;;;;;;;10.83;4.93;;;28.30;99.90;;;;;;5013988;28;20415;-54
2023/06/07 10:20:15;;;;;;;6.13;4.77;;;28.60;99.90;;;;;;5014395;28;20416;-55
2023/06/07 10:22:45;;;;;;;15.93;5.57;;;28.70;99.90;;;;;;5015101;28;20422;-55
2023/06/07 10:25:23;;;;;;;11.80;4.80;;;28.90;99.90;;;;;;5014203;28;20467;-55
2023/06/07 10:27:57;;;;;;;11.23;4.80;;;29.10;99.90;;;;;;5014787;28;20415;-53
2023/06/07 10:30:27;;;;;;;10.77;4.97;;;29.20;99.90;;;;;;5014627;28;20497;-55
2023/06/07 10:32:53;;;;;;;14.97;4.40;;;29.60;99.90;;;;;;5014876;28;20819;-55
2023/06/07 10:35:20;;;;;;;13.73;5.07;;;29.80;99.90;;;;;;5014338;28;20434;-55
2023/06/07 10:37:53;;;;;;;7.67;4.40;;;30.10;99.90;;;;;;5014610;28;20481;-55
2023/06/07 10:40:20;;;;;;;10.70;5.20;;;30.10;99.90;;;;;;5014568;28;20779;-54
2023/06/07 10:42:46;;;;;;;16.23;5.40;;;29.90;99.90;;;;;;5014279;28;20911;-54
2023/06/07 10:45:15;;;;;;;9.27;4.87;;;29.80;99.90;;;;;;5014468;28;20470;-54
2023/06/07 10:47:42;;;;;;;10.20;4.87;;;29.60;99.90;;;;;;5014544;28;20435;-54
2023/06/07 10:50:28;;;;;;;9.80;4.67;;;29.50;99.90;;;;;;5014166;28;20753;-54
2023/06/07 10:52:57;;;;;;;12.10;4.93;;;29.80;99.90;;;;;;5013671;28;20475;-54
2023/06/07 10:55:26;;;;;;;13.83;4.83;;;29.80;99.90;;;;;;5013709;28;20776;-54
2023/06/07 10:57:52;;;;;;;12.53;4.60;;;29.90;99.90;;;;;;5014142;28;20471;-54
2023/06/07 11:00:29;;;;;;;10.73;5.20;;;30.30;99.90;;;;;;5013761;28;20455;-54
2023/06/07 11:03:08;;;;;;;9.83;4.60;;;30.60;99.90;;;;;;5013590;28;20278;-54
2023/06/07 11:05:58;;;;;;;12.07;4.63;;;30.70;99.90;;;;;;5013798;28;20441;-54
2023/06/07 11:08:33;;;;;;;10.73;5.40;;;30.60;99.90;;;;;;5013634;28;20411;-54
2023/06/07 11:11:03;;;;;;;11.40;4.50;;;30.70;99.90;;;;;;5012908;28;20840;-54
2023/06/07 11:13:44;;;;;;;8.97;5.00;;;30.80;99.90;;;;;;5013696;28;20431;-54
2023/06/07 11:16:24;;;;;;;12.30;4.70;;;30.10;99.90;;;;;;5013978;28;20473;-54
2023/06/07 11:19:00;;;;;;;8.10;4.20;;;29.90;99.90;;;;;;5013638;28;20766;-54
2023/06/07 11:21:30;;;;;;;11.77;4.43;;;30.20;99.90;;;;;;5013335;28;20884;-54
2023/06/07 11:24:11;;;;;;;13.20;3.80;;;30.40;99.90;;;;;;5013815;28;20415;-53
2023/06/07 11:26:37;;;;;;;7.20;4.20;;;30.50;99.90;;;;;;5013226;28;20462;-54
2023/06/07 11:29:10;;;;;;;6.67;4.00;;;30.70;99.90;;;;;;5013421;28;20423;-54
2023/06/07 11:31:35;;;;;;;10.03;4.27;;;31.20;99.90;;;;;;5013645;28;20494;-54
2023/06/07 11:34:01;;;;;;;8.40;3.93;;;31.10;99.90;;;;;;5013498;28;20397;-55
2023/06/07 11:36:34;;;;;;;8.00;3.80;;;30.80;99.90;;;;;;5013789;28;20267;-54
2023/06/07 11:39:04;;;;;;;8.53;3.70;;;31.10;99.90;;;;;;5013620;28;20188;-54
2023/06/07 11:41:30;;;;;;;6.73;3.87;;;31.40;99.90;;;;;;5013877;28;20407;-55
2023/06/07 11:43:58;;;;;;;6.50;4.00;;;31.50;99.90;;;;;;5013471;28;20418;-55
2023/06/07 11:46:24;;;;;;;11.07;3.97;;;31.80;99.90;;;;;;5012338;28;20607;-54
2023/06/07 11:48:50;;;;;;;8.10;3.90;;;31.90;99.90;;;;;;5013237;28;20515;-55
2023/06/07 11:51:16;;;;;;;7.47;3.33;;;31.80;99.90;;;;;;5013811;28;20214;-55
2023/06/07 11:53:42;;;;;;;8.27;3.77;;;31.70;99.90;;;;;;5013179;28;20251;-54
2023/06/07 11:56:08;;;;;;;14.07;4.33;;;31.80;99.90;;;;;;5013666;28;20903;-55
2023/06/07 11:58:36;;;;;;;9.30;3.90;;;31.50;99.90;;;;;;5013555;28;20706;-55
2023/06/07 12:01:02;;;;;;;9.63;3.60;;;31.30;99.90;;;;;;5013583;28;20737;-55
2023/06/07 12:03:28;;;;;;;9.67;4.50;;;31.40;99.90;;;;;;5013390;28;20430;-54
2023/06/07 12:05:54;;;;;;;8.83;4.60;;;31.20;99.90;;;;;;5012923;28;20463;-55
2023/06/07 12:08:20;;;;;;;10.10;4.60;;;31.60;99.90;;;;;;5012906;28;20218;-55
2023/06/07 12:10:53;;;;;;;8.33;3.50;;;31.80;99.90;;;;;;5013452;28;20185;-55
2023/06/07 12:13:20;;;;;;;6.70;4.17;;;31.90;99.90;;;;;;5013510;28;20411;-55
2023/06/07 12:15:54;;;;;;;7.77;3.80;;;31.60;99.90;;;;;;5013293;28;20423;-54
2023/06/07 12:18:20;;;;;;;11.43;3.90;;;31.20;99.90;;;;;;5013422;28;20411;-54
2023/06/07 12:20:47;;;;;;;9.47;4.03;;;31.00;99.90;;;;;;5014214;28;20419;-55
2023/06/07 12:23:14;;;;;;;8.83;3.63;;;31.10;99.90;;;;;;5017151;28;20474;-55
2023/06/07 12:25:41;;;;;;;8.63;4.63;;;30.80;99.90;;;;;;5017239;28;20470;-55
2023/06/07 12:28:09;;;;;;;8.47;3.80;;;30.40;99.90;;;;;;5016540;28;20415;-55
2023/06/07 12:30:37;;;;;;;8.50;4.03;;;30.80;99.90;;;;;;5016764;28;20808;-55
2023/06/07 12:33:03;;;;;;;6.13;3.23;;;31.00;99.90;;;;;;5016411;28;20822;-54
2023/06/07 12:35:38;;;;;;;10.63;4.00;;;31.40;99.90;;;;;;5016693;28;20522;-54
2023/06/07 12:38:07;;;;;;;8.60;3.63;;;31.60;99.90;;;;;;5016761;28;20403;-54
2023/06/07 12:40:34;;;;;;;6.80;3.90;;;31.60;99.90;;;;;;5016730;28;20432;-54